createdAt,value
2018-01-14T00:00:00.620Z,24.43
2018-01-14T00:02:28.141Z,25.40
2018-01-14T00:04:55.683Z,25.50
2018-01-14T00:07:23.196Z,26.13
2018-01-14T00:09:50.736Z,24.90
2018-01-14T00:12:18.264Z,25.53
2018-01-14T00:14:45.802Z,24.10
2018-01-14T00:17:13.352Z,25.80
2018-01-14T00:19:40.903Z,25.67
2018-01-14T00:22:08.487Z,26.73
2018-01-14T00:24:36.002Z,25.57
2018-01-14T00:27:04.315Z,24.60
2018-01-14T00:29:31.877Z,27.67
2018-01-14T00:31:59.401Z,27.23
2018-01-14T00:34:26.959Z,24.60
2018-01-14T00:36:54.478Z,25.87
2018-01-14T00:39:21.983Z,28.67
2018-01-14T00:41:49.574Z,28.63
2018-01-14T00:44:17.098Z,27.53
2018-01-14T00:46:44.670Z,25.27
2018-01-14T00:49:12.204Z,27.90
2018-01-14T00:51:39.767Z,28.37
2018-01-14T00:54:07.329Z,24.13
2018-01-14T00:56:35.642Z,23.10
2018-01-14T00:59:03.171Z,23.40
2018-01-14T01:01:31.475Z,24.67
2018-01-14T01:03:59.014Z,27.03
2018-01-14T01:06:26.564Z,30.43
2018-01-14T01:08:54.079Z,31.23
2018-01-14T01:11:21.624Z,29.07
2018-01-14T01:13:49.166Z,28.13
2018-01-14T01:16:17.897Z,30.00
2018-01-14T01:18:45.482Z,29.83
2018-01-14T01:21:12.995Z,33.50
2018-01-14T01:23:40.587Z,30.90
2018-01-14T01:26:08.097Z,32.60
2018-01-14T01:28:35.640Z,32.97
2018-01-14T01:31:03.155Z,31.30
2018-01-14T01:33:30.705Z,34.80
2018-01-14T01:35:58.219Z,33.37
2018-01-14T01:38:25.759Z,34.13
2018-01-14T01:40:53.276Z,30.90
2018-01-14T01:43:20.865Z,34.20
2018-01-14T01:45:48.372Z,36.23
2018-01-14T01:48:15.936Z,35.30
2018-01-14T01:50:43.488Z,34.27
2018-01-14T01:53:11.008Z,33.27
2018-01-14T01:55:38.538Z,35.73
2018-01-14T01:58:06.052Z,32.97
2018-01-14T02:00:33.591Z,32.87
2018-01-14T02:03:01.877Z,30.73
2018-01-14T02:05:29.418Z,30.70
2018-01-14T02:07:57.695Z,31.17
2018-01-14T02:10:25.250Z,26.07
2018-01-14T02:12:52.763Z,25.97
2018-01-14T02:15:20.306Z,29.87
2018-01-14T02:17:47.816Z,25.03
2018-01-14T02:20:15.354Z,27.03
2018-01-14T02:22:42.881Z,26.20
2018-01-14T02:25:11.217Z,27.13
2018-01-14T02:27:38.751Z,28.50
2018-01-14T02:30:06.260Z,30.37
2018-01-14T02:32:33.810Z,30.73
2018-01-14T02:35:01.321Z,28.50
2018-01-14T02:37:28.864Z,28.23
2018-01-14T02:39:56.383Z,25.40
2018-01-14T02:42:23.937Z,24.87
2018-01-14T02:44:51.472Z,25.93
2018-01-14T02:47:19.064Z,21.80
2018-01-14T02:49:46.583Z,22.20
2018-01-14T02:52:14.108Z,25.20
2018-01-14T02:54:41.682Z,23.83
2018-01-14T02:57:09.196Z,22.83
2018-01-14T02:59:36.763Z,23.40
2018-01-14T03:02:04.280Z,22.07
2018-01-14T03:04:31.828Z,25.70
2018-01-14T03:06:59.353Z,24.67
2018-01-14T03:09:26.874Z,22.03
2018-01-14T03:11:54.423Z,23.60
2018-01-14T03:14:21.935Z,23.83
2018-01-14T03:16:49.520Z,20.30
2018-01-14T03:19:17.095Z,23.03
2018-01-14T03:21:44.601Z,25.83
2018-01-14T03:24:12.172Z,20.40
2018-01-14T03:26:39.715Z,24.87
2018-01-14T03:29:07.228Z,21.60
2018-01-14T03:31:34.766Z,21.87
2018-01-14T03:34:02.294Z,20.17
2018-01-14T03:36:29.839Z,21.03
2018-01-14T03:38:57.368Z,22.73
2018-01-14T03:41:24.935Z,21.03
2018-01-14T03:43:52.456Z,20.40
2018-01-14T03:46:19.967Z,20.90
2018-01-14T03:48:47.551Z,23.27
2018-01-14T03:51:15.834Z,23.40
2018-01-14T03:53:43.425Z,21.73
2018-01-14T03:56:10.956Z,19.13
2018-01-14T03:58:38.508Z,18.97
2018-01-14T04:01:06.026Z,18.83
2018-01-14T04:03:33.535Z,20.83
2018-01-14T04:06:01.092Z,20.17
2018-01-14T04:08:28.607Z,17.73
2018-01-14T04:10:56.143Z,19.57
2018-01-14T04:13:23.677Z,16.77
2018-01-14T04:15:51.198Z,19.00
2018-01-14T04:18:18.744Z,20.63
2018-01-14T04:20:46.251Z,17.70
2018-01-14T04:23:13.786Z,19.07
2018-01-14T04:25:42.095Z,15.80
2018-01-14T04:28:09.627Z,19.37
2018-01-14T04:30:37.923Z,21.03
2018-01-14T04:33:05.472Z,18.50
2018-01-14T04:35:33.754Z,17.50
2018-01-14T04:38:01.308Z,17.83
2018-01-14T04:40:29.588Z,17.80
2018-01-14T04:42:57.104Z,18.57
2018-01-14T04:45:24.644Z,19.13
2018-01-14T04:47:52.163Z,19.97
2018-01-14T04:50:19.711Z,20.60
2018-01-14T04:52:47.250Z,19.23
2018-01-14T04:55:14.802Z,17.40
2018-01-14T04:57:42.329Z,20.77
2018-01-14T05:00:09.875Z,21.37
2018-01-14T05:02:37.420Z,18.30
2018-01-14T05:05:05.755Z,20.00
2018-01-14T05:07:33.309Z,18.07
2018-01-14T05:10:00.837Z,17.50
2018-01-14T05:12:28.387Z,14.40
2018-01-14T05:14:55.901Z,15.50
2018-01-14T05:17:23.453Z,16.00
2018-01-14T05:19:51.021Z,15.57
2018-01-14T05:22:18.594Z,13.00
2018-01-14T05:24:46.133Z,14.53
2018-01-14T05:27:13.677Z,13.57
2018-01-14T05:29:41.220Z,15.00
2018-01-14T05:32:08.767Z,15.17
2018-01-14T05:34:36.297Z,12.20
2018-01-14T05:37:03.840Z,15.13
2018-01-14T05:39:31.422Z,15.40
2018-01-14T05:41:58.989Z,14.23
2018-01-14T05:44:26.507Z,16.30
2018-01-14T05:46:54.116Z,14.83
2018-01-14T05:49:22.445Z,15.53
2018-01-14T05:51:49.980Z,11.87
2018-01-14T05:54:17.532Z,11.73
2018-01-14T05:56:45.112Z,11.90
2018-01-14T05:59:12.670Z,11.10
2018-01-14T06:01:41.182Z,9.53
2018-01-14T06:04:08.739Z,12.77
2018-01-14T06:06:36.254Z,10.77
2018-01-14T06:09:03.795Z,12.60
2018-01-14T06:11:31.344Z,11.13
2018-01-14T06:13:58.864Z,12.77
2018-01-14T06:16:26.404Z,12.67
2018-01-14T06:18:53.964Z,13.97
2018-01-14T06:21:21.482Z,13.03
2018-01-14T06:23:49.018Z,12.13
2018-01-14T06:26:16.568Z,13.53
2018-01-14T06:28:44.134Z,10.77
2018-01-14T06:31:11.647Z,14.63
2018-01-14T06:33:39.205Z,15.20
2018-01-14T06:36:06.711Z,13.93
2018-01-14T06:38:34.243Z,14.87
2018-01-14T06:41:01.754Z,15.57
2018-01-14T06:43:29.299Z,16.30
2018-01-14T06:45:56.807Z,14.10
2018-01-14T06:48:24.347Z,12.23
2018-01-14T06:50:51.850Z,14.87
2018-01-14T06:53:19.405Z,11.53
2018-01-14T06:55:46.956Z,13.77
2018-01-14T06:58:14.456Z,13.27
2018-01-14T07:00:42.023Z,12.33
2018-01-14T07:03:09.532Z,14.50
2018-01-14T07:05:37.041Z,13.47
2018-01-14T07:08:05.356Z,13.33
2018-01-14T07:10:32.865Z,12.37
2018-01-14T07:13:00.390Z,12.80
2018-01-14T07:15:28.045Z,12.60
2018-01-14T07:17:55.558Z,13.77
2018-01-14T07:20:23.830Z,13.73
2018-01-14T07:22:51.355Z,13.63
2018-01-14T07:25:18.896Z,13.10
2018-01-14T07:27:47.284Z,13.03
2018-01-14T07:30:14.868Z,17.57
2018-01-14T07:32:42.368Z,13.00
2018-01-14T07:35:09.877Z,14.93
2018-01-14T07:37:37.420Z,14.40
2018-01-14T07:40:04.953Z,12.43
2018-01-14T07:42:32.488Z,13.60
2018-01-14T07:44:59.996Z,15.23
2018-01-14T07:47:27.568Z,13.73
2018-01-14T07:49:55.090Z,13.53
2018-01-14T07:52:22.631Z,13.70
2018-01-14T07:54:50.139Z,12.23
2018-01-14T07:57:17.763Z,13.07
2018-01-14T07:59:45.279Z,12.27
2018-01-14T08:02:12.793Z,13.37
2018-01-14T08:04:40.356Z,17.10
2018-01-14T08:07:07.854Z,13.07
2018-01-14T08:09:35.414Z,14.17
2018-01-14T08:12:02.951Z,15.20
2018-01-14T08:14:30.491Z,15.50
2018-01-14T08:16:58.007Z,12.40
2018-01-14T08:19:25.546Z,15.03
2018-01-14T08:21:53.073Z,11.67
2018-01-14T08:24:20.616Z,12.33
2018-01-14T08:26:48.120Z,11.07
2018-01-14T08:29:15.671Z,11.30
2018-01-14T08:31:43.188Z,12.37
2018-01-14T08:34:10.692Z,9.80
2018-01-14T08:36:38.244Z,13.57
2018-01-14T08:39:05.750Z,9.13
2018-01-14T08:41:33.294Z,6.77
2018-01-14T08:44:00.811Z,9.50
2018-01-14T08:46:28.360Z,8.87
2018-01-14T08:48:55.887Z,9.50
2018-01-14T08:51:23.412Z,9.53
2018-01-14T08:53:50.929Z,8.07
2018-01-14T08:56:18.439Z,8.90
2018-01-14T08:58:46.001Z,12.00
2018-01-14T09:01:13.508Z,8.90
2018-01-14T09:03:41.104Z,9.37
2018-01-14T09:06:08.655Z,9.10
2018-01-14T09:08:36.173Z,12.00
2018-01-14T09:11:03.703Z,8.93
2018-01-14T09:13:31.231Z,13.87
2018-01-14T09:15:58.739Z,8.73
2018-01-14T09:18:27.044Z,8.17
2018-01-14T09:20:54.593Z,8.00
2018-01-14T09:23:22.329Z,8.93
2018-01-14T09:25:50.639Z,9.10
2018-01-14T09:28:18.177Z,9.07
2018-01-14T09:31:02.481Z,9.77
2018-01-14T09:33:30.019Z,10.77
2018-01-14T09:35:57.528Z,11.97
2018-01-14T09:38:25.086Z,11.07
2018-01-14T09:40:52.668Z,9.53
2018-01-14T09:43:20.161Z,11.60
2018-01-14T09:45:47.688Z,10.53
2018-01-14T09:48:15.222Z,13.17
2018-01-14T09:50:42.760Z,9.40
2018-01-14T09:53:10.264Z,8.83
2018-01-14T09:55:37.787Z,11.20
2018-01-14T09:58:05.356Z,13.63
2018-01-14T10:00:32.900Z,13.80
2018-01-14T10:03:00.442Z,18.90
2018-01-14T10:05:27.985Z,20.23
2018-01-14T10:07:55.539Z,20.70
2018-01-14T10:10:23.093Z,18.40
2018-01-14T10:12:50.632Z,26.87
2018-01-14T10:15:18.147Z,22.53
2018-01-14T10:17:45.696Z,21.77
2018-01-14T10:20:13.204Z,21.00
2018-01-14T10:22:41.524Z,23.07
2018-01-14T10:25:09.077Z,17.17
2018-01-14T10:27:36.617Z,12.70
2018-01-14T10:30:04.164Z,10.93
2018-01-14T10:32:31.702Z,11.57
2018-01-14T10:34:59.266Z,12.47
2018-01-14T10:37:26.824Z,11.17
2018-01-14T10:39:54.340Z,10.83
2018-01-14T10:42:21.846Z,12.17
2018-01-14T10:44:49.436Z,15.67
2018-01-14T10:47:16.956Z,11.47
2018-01-14T10:49:44.501Z,9.03
2018-01-14T10:52:12.035Z,12.40
2018-01-14T10:54:39.556Z,13.20
2018-01-14T10:57:07.084Z,12.73
2018-01-14T10:59:34.623Z,12.80
2018-01-14T11:02:02.246Z,12.37
2018-01-14T11:04:29.801Z,9.97
2018-01-14T11:06:57.387Z,11.43
2018-01-14T11:09:24.917Z,10.50
2018-01-14T11:11:52.475Z,10.53
2018-01-14T11:14:20.008Z,11.00
2018-01-14T11:16:47.571Z,9.07
2018-01-14T11:19:15.090Z,11.87
2018-01-14T11:21:42.654Z,10.40
2018-01-14T11:24:10.205Z,9.90
2018-01-14T11:26:37.732Z,10.50
2018-01-14T11:29:06.020Z,10.37
2018-01-14T11:31:33.523Z,10.10
2018-01-14T11:34:01.035Z,10.07
2018-01-14T11:36:28.570Z,13.10
2018-01-14T11:38:56.086Z,9.47
2018-01-14T11:41:23.673Z,9.77
2018-01-14T11:43:51.185Z,9.97
2018-01-14T11:46:18.703Z,9.33
2018-01-14T11:48:46.227Z,11.83
2018-01-14T11:51:13.766Z,9.57
2018-01-14T11:53:41.317Z,12.43
2018-01-14T11:56:08.835Z,8.20
2018-01-14T11:58:36.358Z,10.87
2018-01-14T12:01:03.938Z,11.97
2018-01-14T12:03:31.459Z,9.70
2018-01-14T12:05:59.024Z,8.73
2018-01-14T12:08:26.584Z,12.43
2018-01-14T12:10:54.187Z,12.27
2018-01-14T12:13:21.729Z,10.40
2018-01-14T12:15:49.269Z,10.77
2018-01-14T12:18:16.810Z,11.63
2018-01-14T12:20:44.331Z,13.93
2018-01-14T12:23:11.890Z,14.27
2018-01-14T12:25:39.449Z,13.47
2018-01-14T12:28:06.996Z,14.20
2018-01-14T12:30:34.528Z,17.47
2018-01-14T12:33:09.927Z,16.20
2018-01-14T12:35:37.487Z,14.77
2018-01-14T12:38:05.835Z,15.10
2018-01-14T12:40:33.387Z,15.13
2018-01-14T12:43:00.908Z,12.93
2018-01-14T12:45:28.466Z,11.40
2018-01-14T12:47:55.976Z,13.37
2018-01-14T12:50:23.523Z,10.67
2018-01-14T12:52:51.151Z,10.27
2018-01-14T12:55:18.730Z,10.13
2018-01-14T12:57:46.276Z,12.93
2018-01-14T13:00:13.822Z,11.43
2018-01-14T13:02:41.381Z,11.80
2018-01-14T13:05:08.961Z,11.33
2018-01-14T13:07:36.544Z,13.50
2018-01-14T13:10:04.065Z,12.00
2018-01-14T13:12:31.613Z,14.90
2018-01-14T13:14:59.270Z,12.07
2018-01-14T13:17:27.665Z,14.03
2018-01-14T13:19:55.223Z,14.57
2018-01-14T13:22:22.793Z,12.67
2018-01-14T13:24:50.320Z,9.97
2018-01-14T13:27:18.657Z,14.30
2018-01-14T13:29:46.173Z,14.33
2018-01-14T13:32:13.728Z,12.53
2018-01-14T13:34:41.315Z,13.20
2018-01-14T13:37:08.828Z,11.37
2018-01-14T13:39:37.108Z,10.93
2018-01-14T13:42:04.665Z,12.87
2018-01-14T13:44:33.026Z,14.80
2018-01-14T13:47:00.575Z,14.87
2018-01-14T13:49:28.088Z,13.67
2018-01-14T13:51:55.621Z,10.53
2018-01-14T13:54:23.223Z,12.10
2018-01-14T13:56:51.149Z,11.10
2018-01-14T13:59:18.721Z,11.73
2018-01-14T14:01:47.032Z,10.97
2018-01-14T14:04:14.553Z,12.33
2018-01-14T14:06:42.861Z,11.47
2018-01-14T14:09:10.404Z,10.07
2018-01-14T14:11:38.003Z,10.30
2018-01-14T14:14:05.542Z,11.90
2018-01-14T14:16:33.062Z,11.17
2018-01-14T14:19:01.383Z,11.20
2018-01-14T14:21:28.957Z,11.43
2018-01-14T14:23:56.479Z,11.10
2018-01-14T14:26:23.987Z,12.00
2018-01-14T14:28:51.540Z,11.37
2018-01-14T14:31:19.125Z,12.90
2018-01-14T14:33:47.297Z,10.83
2018-01-14T14:36:14.879Z,13.40
2018-01-14T14:38:43.186Z,12.77
2018-01-14T14:41:10.788Z,11.37
2018-01-14T14:43:38.316Z,13.57
2018-01-14T14:46:05.960Z,11.00
2018-01-14T14:48:33.476Z,10.30
2018-01-14T14:51:01.036Z,10.97
2018-01-14T14:53:28.564Z,8.90
2018-01-14T14:55:56.153Z,9.40
2018-01-14T14:58:23.676Z,12.60
2018-01-14T15:00:51.200Z,11.27
2018-01-14T15:03:18.766Z,11.53
2018-01-14T15:05:47.065Z,10.03
2018-01-14T15:08:14.595Z,12.27
2018-01-14T15:10:42.872Z,9.60
2018-01-14T15:13:10.515Z,12.20
2018-01-14T15:15:38.106Z,13.33
2018-01-14T15:18:05.663Z,12.10
2018-01-14T15:20:33.198Z,13.43
2018-01-14T15:23:00.744Z,11.07
2018-01-14T15:25:28.305Z,14.40
2018-01-14T15:27:55.858Z,14.33
2018-01-14T15:30:23.414Z,10.77
2018-01-14T15:32:51.241Z,11.53
2018-01-14T15:35:18.987Z,10.90
2018-01-14T15:37:47.399Z,11.23
2018-01-14T15:40:14.963Z,12.37
2018-01-14T15:42:42.570Z,11.00
2018-01-14T15:45:10.155Z,13.17
2018-01-14T15:47:37.910Z,11.80
2018-01-14T15:50:06.257Z,12.83
2018-01-14T15:52:33.874Z,13.50
2018-01-14T15:55:01.848Z,13.53
2018-01-14T15:57:29.414Z,14.27
2018-01-14T15:59:57.002Z,17.60
2018-01-14T16:02:24.596Z,14.60
2018-01-14T16:04:52.225Z,18.23
2018-01-14T16:07:19.791Z,18.40
2018-01-14T16:09:47.390Z,15.10
2018-01-14T16:12:14.922Z,16.87
2018-01-14T16:14:43.266Z,13.83
2018-01-14T16:17:10.850Z,15.37
2018-01-14T16:19:38.365Z,14.77
2018-01-14T16:22:05.917Z,17.73
2018-01-14T16:24:33.563Z,16.93
2018-01-14T16:27:01.090Z,16.73
2018-01-14T16:29:28.692Z,18.63
2018-01-14T16:31:56.215Z,18.70
2018-01-14T16:34:23.866Z,26.70
2018-01-14T16:36:51.432Z,23.10
2018-01-14T16:39:19.764Z,23.37
2018-01-14T16:41:47.340Z,27.93
2018-01-14T16:44:14.912Z,23.10
2018-01-14T16:46:42.438Z,22.63
2018-01-14T16:49:10.224Z,22.17
2018-01-14T16:51:37.739Z,20.27
2018-01-14T16:54:05.350Z,16.90
2018-01-14T16:56:32.882Z,13.00
2018-01-14T16:59:00.392Z,12.73
2018-01-14T17:01:28.002Z,14.63
2018-01-14T17:03:55.570Z,16.67
2018-01-14T17:06:23.133Z,17.77
2018-01-14T17:08:50.659Z,21.90
2018-01-14T17:11:18.249Z,25.50
2018-01-14T17:13:45.842Z,23.67
2018-01-14T17:16:13.626Z,29.93
2018-01-14T17:18:41.245Z,25.50
2018-01-14T17:21:08.787Z,17.40
2018-01-14T17:23:36.300Z,18.13
2018-01-14T17:26:03.846Z,16.50
2018-01-14T17:28:31.368Z,13.57
2018-01-14T17:30:58.880Z,11.00
2018-01-14T17:33:27.437Z,11.20
2018-01-14T17:35:55.261Z,14.77
2018-01-14T17:38:22.824Z,17.67
2018-01-14T17:40:50.598Z,16.47
2018-01-14T17:43:18.358Z,15.73
2018-01-14T17:45:45.943Z,17.60
2018-01-14T17:48:13.472Z,22.33
2018-01-14T17:50:41.036Z,23.00
2018-01-14T17:53:08.835Z,22.40
2018-01-14T17:55:36.359Z,31.40
2018-01-14T17:58:04.236Z,22.27
2018-01-14T18:00:31.751Z,21.70
2018-01-14T18:02:59.304Z,24.27
2018-01-14T18:05:26.830Z,21.83
2018-01-14T18:07:54.379Z,22.73
2018-01-14T18:10:21.889Z,27.07
2018-01-14T18:12:49.477Z,22.53
2018-01-14T18:15:17.237Z,22.30
2018-01-14T18:17:44.759Z,21.00
2018-01-14T18:20:12.537Z,25.93
2018-01-14T18:22:40.896Z,26.67
2018-01-14T18:25:08.455Z,25.23
2018-01-14T18:27:36.018Z,22.70
2018-01-14T18:30:03.599Z,22.90
2018-01-14T18:32:32.168Z,21.83
2018-01-14T18:34:59.692Z,24.93
2018-01-14T18:37:27.464Z,22.00
2018-01-14T18:39:55.063Z,22.97
2018-01-14T18:42:22.818Z,21.87
2018-01-14T18:44:50.384Z,20.67
2018-01-14T18:47:17.997Z,21.67
2018-01-14T18:49:45.596Z,21.47
2018-01-14T18:52:13.213Z,22.83
2018-01-14T18:54:40.796Z,20.23
2018-01-14T18:57:08.398Z,25.30
2018-01-14T18:59:36.729Z,24.17
2018-01-14T19:02:04.324Z,21.57
2018-01-14T19:04:31.911Z,30.67
2018-01-14T19:06:59.519Z,23.97
2018-01-14T19:09:27.191Z,21.90
2018-01-14T19:11:54.768Z,22.63
2018-01-14T19:14:22.345Z,24.47
2018-01-14T19:16:49.920Z,22.77
2018-01-14T19:19:17.568Z,23.83
2018-01-14T19:21:45.180Z,25.30
2018-01-14T19:24:12.762Z,25.27
2018-01-14T19:26:40.352Z,24.00
2018-01-14T19:29:07.918Z,19.43
2018-01-14T19:31:35.531Z,25.83
2018-01-14T19:34:03.310Z,21.27
2018-01-14T19:36:30.900Z,20.27
2018-01-14T19:38:59.189Z,19.50
2018-01-14T19:41:26.789Z,17.80
2018-01-14T19:43:55.209Z,21.00
2018-01-14T19:46:22.817Z,19.00
2018-01-14T19:48:50.388Z,18.70
2018-01-14T19:51:18.030Z,22.60
2018-01-14T19:53:45.619Z,23.83
2018-01-14T19:56:13.220Z,23.23
2018-01-14T19:58:41.590Z,20.20
2018-01-14T20:01:09.931Z,18.73
2018-01-14T20:03:37.550Z,20.90
2018-01-14T20:06:05.122Z,19.00
2018-01-14T20:08:32.738Z,18.40
2018-01-14T20:11:00.266Z,16.80
2018-01-14T20:13:28.215Z,18.27
2018-01-14T20:15:55.793Z,17.03
2018-01-14T20:18:23.427Z,19.13
2018-01-14T20:20:51.023Z,26.13
2018-01-14T20:23:18.610Z,24.73
2018-01-14T20:25:46.991Z,21.80
2018-01-14T20:28:15.334Z,25.83
2018-01-14T20:30:42.874Z,24.97
2018-01-14T20:33:10.472Z,21.67
2018-01-14T20:35:38.062Z,24.03
2018-01-14T20:38:06.394Z,21.67
2018-01-14T20:40:34.005Z,22.67
2018-01-14T20:43:01.605Z,22.10
2018-01-14T20:45:29.212Z,23.17
2018-01-14T20:47:56.774Z,23.20
2018-01-14T20:50:24.375Z,25.87
2018-01-14T20:52:52.010Z,23.90
2018-01-14T20:55:19.593Z,19.33
2018-01-14T20:57:47.190Z,24.47
2018-01-14T21:00:14.765Z,26.83
2018-01-14T21:02:42.328Z,21.27
2018-01-14T21:05:09.852Z,23.07
2018-01-14T21:07:37.441Z,22.20
2018-01-14T21:10:05.025Z,23.77
2018-01-14T21:12:32.620Z,22.67
2018-01-14T21:15:00.229Z,23.63
2018-01-14T21:17:27.831Z,22.43
2018-01-14T21:19:55.402Z,21.50
2018-01-14T21:22:23.236Z,24.37
2018-01-14T21:24:50.561Z,26.17
2018-01-14T21:27:18.122Z,21.83
2018-01-14T21:29:45.722Z,21.23
2018-01-14T21:32:13.276Z,24.50
2018-01-14T21:34:40.802Z,21.40
2018-01-14T21:37:08.385Z,21.47
2018-01-14T21:39:36.937Z,24.80
2018-01-14T21:42:04.468Z,20.67
2018-01-14T21:44:32.075Z,18.43
2018-01-14T21:47:00.410Z,21.70
2018-01-14T21:49:28.813Z,23.17
2018-01-14T21:51:56.417Z,22.97
2018-01-14T21:54:23.946Z,23.27
2018-01-14T21:56:51.530Z,23.93
2018-01-14T21:59:19.845Z,21.13
2018-01-14T22:01:47.438Z,21.70
2018-01-14T22:04:15.033Z,22.23
2018-01-14T22:06:42.644Z,21.73
2018-01-14T22:09:10.248Z,20.73
2018-01-14T22:11:37.802Z,21.60
2018-01-14T22:14:06.117Z,22.27
2018-01-14T22:16:33.885Z,28.00
2018-01-14T22:19:01.488Z,27.73
2018-01-14T22:21:29.037Z,23.17
2018-01-14T22:23:56.629Z,22.03
2018-01-14T22:26:24.958Z,24.47
2018-01-14T22:28:52.776Z,20.10
2018-01-14T22:31:21.108Z,20.60
2018-01-14T22:33:48.656Z,22.17
2018-01-14T22:36:16.246Z,22.60
2018-01-14T22:38:43.854Z,23.43
2018-01-14T22:41:11.395Z,22.67
2018-01-14T22:43:39.718Z,30.23
2018-01-14T22:46:07.524Z,24.53
2018-01-14T22:48:35.821Z,25.97
2018-01-14T22:51:03.420Z,26.77
2018-01-14T22:53:31.013Z,28.77
2018-01-14T22:55:58.572Z,24.13
2018-01-14T22:58:26.090Z,20.67
2018-01-14T23:00:53.679Z,22.13
2018-01-14T23:03:21.223Z,20.43
2018-01-14T23:05:48.810Z,21.40
2018-01-14T23:08:16.374Z,24.07
2018-01-14T23:10:43.942Z,21.93
2018-01-14T23:13:11.470Z,21.13
2018-01-14T23:15:39.012Z,22.23
2018-01-14T23:18:06.552Z,22.50
2018-01-14T23:20:34.063Z,24.23
2018-01-14T23:23:01.616Z,22.63
2018-01-14T23:25:29.130Z,25.43
2018-01-14T23:27:56.689Z,23.43
2018-01-14T23:30:24.199Z,22.77
2018-01-14T23:32:51.747Z,19.97
2018-01-14T23:35:19.290Z,23.93
2018-01-14T23:37:46.883Z,21.23
2018-01-14T23:40:14.393Z,22.53
2018-01-14T23:42:41.949Z,21.80
2018-01-14T23:45:09.488Z,19.73
2018-01-14T23:47:37.033Z,22.33
2018-01-14T23:50:04.545Z,21.83
2018-01-14T23:52:32.092Z,20.60
2018-01-14T23:54:59.615Z,23.60
2018-01-14T23:57:27.944Z,20.23
2018-01-14T23:59:55.451Z,19.50
